createdAt,value
2018-08-13T00:01:08.675Z,24.50
2018-08-13T00:03:36.967Z,24.50
2018-08-13T00:06:05.269Z,24.50
2018-08-13T00:08:33.559Z,24.50
2018-08-13T00:11:01.847Z,24.50
2018-08-13T00:13:30.169Z,24.50
2018-08-13T00:15:58.496Z,24.40
2018-08-13T00:18:26.858Z,24.40
2018-08-13T00:20:55.204Z,24.40
2018-08-13T00:23:23.527Z,24.50
2018-08-13T00:25:51.930Z,24.50
2018-08-13T00:28:20.198Z,24.40
2018-08-13T00:30:48.507Z,24.40
2018-08-13T00:33:16.784Z,24.40
2018-08-13T00:35:45.117Z,24.40
2018-08-13T00:38:13.497Z,24.40
2018-08-13T00:40:41.894Z,24.40
2018-08-13T00:43:10.230Z,24.40
2018-08-13T00:45:38.610Z,24.40
2018-08-13T00:48:06.902Z,24.40
2018-08-13T00:50:35.183Z,24.40
2018-08-13T00:53:03.515Z,24.40
2018-08-13T00:55:31.832Z,24.40
2018-08-13T00:58:00.121Z,24.40
2018-08-13T01:00:28.460Z,24.40
2018-08-13T01:02:56.729Z,24.40
2018-08-13T01:05:25.040Z,24.40
2018-08-13T01:07:53.337Z,24.40
2018-08-13T01:10:22.461Z,24.40
2018-08-13T01:12:50.843Z,24.40
2018-08-13T01:15:19.918Z,24.40
2018-08-13T01:17:49.275Z,24.40
2018-08-13T01:20:18.847Z,24.40
2018-08-13T01:22:47.168Z,24.40
2018-08-13T01:25:16.592Z,24.40
2018-08-13T01:27:45.197Z,24.30
2018-08-13T01:30:14.937Z,24.40
2018-08-13T01:32:43.270Z,24.40
2018-08-13T01:35:11.559Z,24.40
2018-08-13T01:37:39.895Z,24.40
2018-08-13T01:40:09.474Z,24.30
2018-08-13T01:42:37.787Z,24.30
2018-08-13T01:45:08.323Z,24.40
2018-08-13T01:47:36.649Z,24.30
2018-08-13T01:50:06.876Z,24.30
2018-08-13T01:52:35.178Z,24.30
2018-08-13T01:55:03.607Z,24.30
2018-08-13T01:57:31.902Z,24.30
2018-08-13T02:00:00.179Z,24.30
2018-08-13T02:02:28.492Z,24.30
2018-08-13T02:04:56.808Z,24.30
2018-08-13T02:07:25.119Z,24.30
2018-08-13T02:09:54.119Z,24.30
2018-08-13T02:12:22.390Z,24.30
2018-08-13T02:14:50.675Z,24.30
2018-08-13T02:17:18.990Z,24.30
2018-08-13T02:19:47.301Z,24.20
2018-08-13T02:22:15.582Z,24.20
2018-08-13T02:24:43.979Z,24.20
2018-08-13T02:27:12.285Z,24.30
2018-08-13T02:29:40.595Z,24.20
2018-08-13T02:32:08.990Z,24.20
2018-08-13T02:34:37.279Z,24.20
2018-08-13T02:37:05.737Z,24.20
2018-08-13T02:39:34.023Z,24.20
2018-08-13T02:42:02.359Z,24.20
2018-08-13T02:44:30.681Z,24.20
2018-08-13T02:46:58.974Z,24.20
2018-08-13T02:49:27.266Z,24.10
2018-08-13T02:51:56.349Z,24.20
2018-08-13T02:54:24.705Z,24.20
2018-08-13T02:56:53.011Z,24.20
2018-08-13T02:59:21.937Z,24.10
2018-08-13T03:01:50.223Z,24.10
2018-08-13T03:04:18.532Z,24.10
2018-08-13T03:06:46.821Z,24.10
2018-08-13T03:09:15.151Z,24.10
2018-08-13T03:11:43.453Z,24.10
2018-08-13T03:14:12.394Z,24.10
2018-08-13T03:16:40.699Z,24.00
2018-08-13T03:19:09.070Z,24.00
2018-08-13T03:21:37.394Z,24.10
2018-08-13T03:24:06.024Z,24.00
2018-08-13T03:26:34.295Z,24.00
2018-08-13T03:29:02.656Z,24.00
2018-08-13T03:31:30.991Z,24.00
2018-08-13T03:34:00.048Z,24.00
2018-08-13T03:36:28.345Z,24.00
2018-08-13T03:38:56.658Z,24.00
2018-08-13T03:41:24.973Z,24.00
2018-08-13T03:43:53.275Z,24.00
2018-08-13T03:46:22.723Z,24.00
2018-08-13T03:48:51.054Z,24.00
2018-08-13T03:51:19.355Z,24.00
2018-08-13T03:53:47.626Z,23.90
2018-08-13T03:56:15.907Z,23.90
2018-08-13T03:58:44.200Z,23.90
2018-08-13T04:01:13.182Z,23.90
2018-08-13T04:03:41.530Z,23.90
2018-08-13T04:06:09.831Z,23.90
2018-08-13T04:08:38.170Z,23.90
2018-08-13T04:11:06.975Z,23.90
2018-08-13T04:13:35.267Z,23.90
2018-08-13T04:16:03.578Z,23.90
2018-08-13T04:18:31.876Z,23.90
2018-08-13T04:21:00.194Z,23.90
2018-08-13T04:23:28.501Z,23.90
2018-08-13T04:25:56.835Z,23.90
2018-08-13T04:28:25.161Z,23.90
2018-08-13T04:30:53.477Z,23.90
2018-08-13T04:33:21.841Z,23.90
2018-08-13T04:35:50.157Z,23.90
2018-08-13T04:38:18.524Z,23.90
2018-08-13T04:40:46.807Z,23.80
2018-08-13T04:43:15.780Z,23.80
2018-08-13T04:45:44.083Z,23.90
2018-08-13T04:48:12.402Z,23.90
2018-08-13T04:50:40.774Z,23.90
2018-08-13T04:53:09.109Z,23.80
2018-08-13T04:55:37.951Z,23.80
2018-08-13T04:58:06.292Z,23.80
2018-08-13T05:00:34.575Z,23.90
2018-08-13T05:03:03.475Z,23.80
2018-08-13T05:05:31.780Z,23.80
2018-08-13T05:08:00.068Z,23.80
2018-08-13T05:10:28.381Z,23.80
2018-08-13T05:12:56.703Z,23.80
2018-08-13T05:15:25.000Z,23.80
2018-08-13T05:17:53.284Z,23.80
2018-08-13T05:20:21.592Z,23.80
2018-08-13T05:22:49.927Z,23.80
2018-08-13T05:25:18.314Z,23.80
2018-08-13T05:27:46.626Z,23.80
2018-08-13T05:30:15.542Z,23.80
2018-08-13T05:32:43.876Z,23.80
2018-08-13T05:35:12.184Z,23.80
2018-08-13T05:37:40.490Z,23.80
2018-08-13T05:40:10.209Z,23.80
2018-08-13T05:42:39.025Z,23.70
2018-08-13T05:45:08.539Z,23.70
2018-08-13T05:47:36.898Z,23.80
2018-08-13T05:50:06.909Z,23.80
2018-08-13T05:52:35.196Z,23.80
2018-08-13T05:55:03.669Z,23.80
2018-08-13T05:57:32.002Z,23.80
2018-08-13T06:00:00.329Z,23.80
2018-08-13T06:02:28.662Z,23.80
2018-08-13T06:04:57.023Z,23.80
2018-08-13T06:07:25.319Z,23.80
2018-08-13T06:09:53.614Z,23.80
2018-08-13T06:12:21.951Z,23.70
2018-08-13T06:14:50.367Z,23.80
2018-08-13T06:17:18.711Z,23.80
2018-08-13T06:19:47.019Z,23.80
2018-08-13T06:22:15.532Z,23.90
2018-08-13T06:24:43.817Z,23.90
2018-08-13T06:27:12.122Z,23.90
2018-08-13T06:29:41.322Z,23.90
2018-08-13T06:32:09.622Z,23.90
2018-08-13T06:34:37.918Z,23.90
2018-08-13T06:37:06.550Z,23.90
2018-08-13T06:39:34.733Z,23.90
2018-08-13T06:42:03.034Z,23.90
2018-08-13T06:44:31.410Z,23.90
2018-08-13T06:46:59.806Z,23.90
2018-08-13T06:49:28.073Z,23.80
2018-08-13T06:51:56.706Z,23.90
2018-08-13T06:54:25.007Z,23.90
2018-08-13T06:56:53.303Z,23.90
2018-08-13T06:59:21.583Z,23.90
2018-08-13T07:01:49.964Z,23.90
2018-08-13T07:04:18.298Z,23.90
2018-08-13T07:06:46.888Z,23.90
2018-08-13T07:09:15.330Z,23.90
2018-08-13T07:11:43.942Z,23.90
2018-08-13T07:14:12.771Z,23.90
2018-08-13T07:16:41.073Z,23.90
2018-08-13T07:19:09.382Z,23.90
2018-08-13T07:21:38.736Z,23.80
2018-08-13T07:24:07.098Z,23.80
2018-08-13T07:26:35.476Z,23.90
2018-08-13T07:29:03.855Z,23.90
2018-08-13T07:31:32.171Z,23.90
2018-08-13T07:34:00.551Z,23.90
2018-08-13T07:36:28.889Z,24.00
2018-08-13T07:38:57.944Z,24.00
2018-08-13T07:41:26.857Z,24.00
2018-08-13T07:43:55.255Z,24.00
2018-08-13T07:46:23.699Z,24.00
2018-08-13T07:48:52.518Z,24.00
2018-08-13T07:51:20.838Z,24.00
2018-08-13T07:53:49.105Z,24.00
2018-08-13T07:56:17.406Z,23.90
2018-08-13T07:58:45.716Z,24.00
2018-08-13T08:01:14.007Z,24.00
2018-08-13T08:03:43.246Z,23.90
2018-08-13T08:06:12.183Z,24.00
2018-08-13T08:08:40.618Z,23.90
2018-08-13T08:11:08.919Z,23.90
2018-08-13T08:13:37.273Z,24.00
2018-08-13T08:16:05.615Z,23.90
2018-08-13T08:18:33.886Z,24.00
2018-08-13T08:21:02.208Z,24.00
2018-08-13T08:23:30.540Z,23.90
2018-08-13T08:25:58.845Z,23.90
2018-08-13T08:28:27.178Z,24.00
2018-08-13T08:30:56.025Z,24.00
2018-08-13T08:33:24.341Z,24.00
2018-08-13T08:35:52.686Z,24.00
2018-08-13T08:38:20.974Z,24.00
2018-08-13T08:40:49.367Z,24.00
2018-08-13T08:43:17.708Z,24.00
2018-08-13T08:45:45.979Z,24.10
2018-08-13T08:48:14.418Z,24.20
2018-08-13T08:50:42.782Z,24.20
2018-08-13T08:53:25.770Z,24.20
2018-08-13T08:55:54.041Z,24.20
2018-08-13T08:58:22.376Z,24.20
2018-08-13T09:00:50.678Z,24.20
2018-08-13T09:03:19.212Z,24.20
2018-08-13T09:05:47.546Z,24.20
2018-08-13T09:08:15.864Z,24.20
2018-08-13T09:10:44.161Z,24.10
2018-08-13T09:13:12.432Z,24.10
2018-08-13T09:15:40.754Z,24.10
2018-08-13T09:18:21.170Z,24.10
2018-08-13T09:21:00.733Z,24.10
2018-08-13T09:23:40.462Z,24.10
2018-08-13T09:26:20.311Z,24.10
2018-08-13T09:29:00.060Z,24.10
2018-08-13T09:31:54.850Z,24.10
2018-08-13T09:34:34.091Z,24.10
2018-08-13T09:37:02.372Z,24.10
2018-08-13T09:39:30.675Z,24.20
2018-08-13T09:41:59.002Z,24.30
2018-08-13T09:44:27.283Z,24.30
2018-08-13T09:46:55.742Z,24.30
2018-08-13T09:49:24.064Z,24.30
2018-08-13T09:51:52.542Z,24.30
2018-08-13T09:54:20.881Z,24.30
2018-08-13T09:56:49.158Z,24.30
2018-08-13T09:59:17.443Z,24.30
2018-08-13T10:01:45.814Z,24.30
2018-08-13T10:04:14.116Z,24.30
2018-08-13T10:06:42.419Z,24.30
2018-08-13T10:09:10.775Z,24.30
2018-08-13T10:11:39.095Z,24.60
2018-08-13T10:14:07.510Z,24.40
2018-08-13T10:16:35.785Z,24.40
2018-08-13T10:19:04.091Z,24.40
2018-08-13T10:21:32.451Z,24.40
2018-08-13T10:24:00.914Z,24.30
2018-08-13T10:26:29.251Z,24.40
2018-08-13T10:28:57.631Z,24.30
2018-08-13T10:31:25.905Z,24.30
2018-08-13T10:33:54.231Z,24.30
2018-08-13T10:36:22.528Z,24.40
2018-08-13T10:38:50.848Z,24.50
2018-08-13T10:41:19.308Z,24.50
2018-08-13T10:43:47.667Z,24.40
2018-08-13T10:46:15.986Z,24.40
2018-08-13T10:48:44.287Z,24.40
2018-08-13T10:51:12.838Z,24.40
2018-08-13T10:53:41.162Z,24.40
2018-08-13T10:56:09.491Z,24.40
2018-08-13T10:58:37.902Z,24.40
2018-08-13T11:01:06.722Z,24.50
2018-08-13T11:03:35.048Z,24.60
2018-08-13T11:06:03.363Z,24.60
2018-08-13T11:08:31.982Z,24.60
2018-08-13T11:11:00.326Z,24.60
2018-08-13T11:13:28.666Z,24.60
2018-08-13T11:15:56.933Z,24.60
2018-08-13T11:18:26.198Z,24.60
2018-08-13T11:20:54.587Z,24.60
2018-08-13T11:23:22.907Z,24.70
2018-08-13T11:25:51.204Z,24.60
2018-08-13T11:28:20.410Z,24.60
2018-08-13T11:30:48.726Z,24.50
2018-08-13T11:33:17.063Z,24.60
2018-08-13T11:35:45.342Z,24.50
2018-08-13T11:38:13.764Z,24.50
2018-08-13T11:40:42.086Z,24.50
2018-08-13T11:43:10.532Z,24.50
2018-08-13T11:45:38.838Z,24.50
2018-08-13T11:48:07.203Z,24.50
2018-08-13T11:50:35.499Z,24.50
2018-08-13T11:53:03.877Z,24.50
2018-08-13T11:55:32.203Z,24.50
2018-08-13T11:58:00.609Z,24.50
2018-08-13T12:00:28.898Z,24.50
2018-08-13T12:02:57.261Z,24.50
2018-08-13T12:05:26.170Z,24.50
2018-08-13T12:07:55.383Z,24.50
2018-08-13T12:10:23.717Z,24.50
2018-08-13T12:12:52.029Z,24.60
2018-08-13T12:15:20.402Z,24.60
2018-08-13T12:17:48.731Z,24.60
2018-08-13T12:20:18.745Z,24.60
2018-08-13T12:22:47.401Z,24.60
2018-08-13T12:25:24.946Z,24.70
2018-08-13T12:27:53.493Z,24.70
2018-08-13T12:30:21.879Z,24.70
2018-08-13T12:32:50.895Z,24.70
2018-08-13T12:35:19.809Z,24.70
2018-08-13T12:37:48.194Z,24.70
2018-08-13T12:40:16.508Z,24.70
2018-08-13T12:42:44.826Z,24.70
2018-08-13T12:45:15.493Z,24.60
2018-08-13T12:47:44.025Z,24.60
2018-08-13T12:50:14.748Z,24.60
2018-08-13T12:52:44.401Z,24.70
2018-08-13T12:55:18.966Z,24.70
2018-08-13T12:57:47.269Z,24.60
2018-08-13T13:00:17.071Z,24.60
2018-08-13T13:02:45.382Z,24.60
2018-08-13T13:05:15.043Z,24.70
2018-08-13T13:07:43.938Z,24.70
2018-08-13T13:10:13.854Z,24.80
2018-08-13T13:12:42.983Z,24.80
2018-08-13T13:15:15.564Z,24.90
2018-08-13T13:17:43.862Z,24.90
2018-08-13T13:20:14.043Z,24.80
2018-08-13T13:22:42.439Z,24.90
2018-08-13T13:25:10.767Z,25.00
2018-08-13T13:27:39.479Z,25.00
2018-08-13T13:30:10.411Z,25.00
2018-08-13T13:32:38.686Z,25.10
2018-08-13T13:35:08.183Z,25.10
2018-08-13T13:37:37.015Z,25.20
2018-08-13T13:40:07.448Z,25.20
2018-08-13T13:42:35.998Z,25.20
2018-08-13T13:45:04.873Z,25.20
2018-08-13T13:47:33.880Z,25.30
2018-08-13T13:50:02.275Z,25.30
2018-08-13T13:52:30.718Z,25.30
2018-08-13T13:54:59.072Z,25.30
2018-08-13T13:57:27.511Z,25.30
2018-08-13T13:59:57.027Z,25.30
2018-08-13T14:02:25.338Z,25.30
2018-08-13T14:04:53.786Z,25.30
2018-08-13T14:07:22.162Z,25.30
2018-08-13T14:09:50.682Z,25.30
2018-08-13T14:12:20.298Z,25.30
2018-08-13T14:14:48.605Z,25.30
2018-08-13T14:17:16.920Z,25.30
2018-08-13T14:19:45.215Z,25.30
2018-08-13T14:22:13.571Z,25.40
2018-08-13T14:24:41.918Z,25.40
2018-08-13T14:27:10.557Z,25.40
2018-08-13T14:29:38.898Z,25.40
2018-08-13T14:32:07.278Z,25.40
2018-08-13T14:34:35.617Z,25.40
2018-08-13T14:37:04.132Z,25.40
2018-08-13T14:39:32.449Z,25.40
2018-08-13T14:42:00.955Z,25.40
2018-08-13T14:44:29.652Z,25.40
2018-08-13T14:46:57.986Z,25.50
2018-08-13T14:49:26.875Z,25.40
2018-08-13T17:40:59.224Z,25.90
2018-08-13T17:43:27.525Z,25.50
2018-08-13T17:45:56.359Z,25.50
2018-08-13T17:48:24.618Z,25.40
2018-08-13T17:50:53.903Z,25.40
2018-08-13T17:53:22.715Z,25.40
2018-08-13T17:55:51.559Z,25.30
2018-08-13T17:58:20.367Z,25.30
2018-08-13T18:00:48.887Z,25.30
2018-08-13T18:03:18.166Z,25.30
2018-08-13T18:05:46.990Z,25.30
2018-08-13T18:08:15.496Z,25.20
2018-08-13T18:10:44.378Z,25.20
2018-08-13T18:13:12.711Z,25.20
2018-08-13T18:15:41.911Z,25.20
2018-08-13T18:18:10.823Z,25.10
2018-08-13T18:20:39.221Z,25.10
2018-08-13T18:23:08.145Z,25.10
2018-08-13T18:25:36.466Z,25.10
2018-08-13T18:28:05.355Z,25.10
2018-08-13T18:30:35.255Z,25.10
2018-08-13T18:33:03.818Z,25.00
2018-08-13T18:35:32.359Z,25.00
2018-08-13T18:38:01.018Z,25.00
2018-08-13T18:40:32.237Z,25.00
2018-08-13T18:43:00.846Z,25.00
2018-08-13T18:45:29.141Z,24.90
2018-08-13T18:47:58.185Z,25.00
2018-08-13T18:50:26.478Z,25.00
2018-08-13T18:52:55.099Z,24.90
2018-08-13T18:55:24.584Z,24.90
2018-08-13T18:57:54.913Z,24.90
2018-08-13T19:00:26.940Z,24.80
2018-08-13T19:02:56.574Z,24.80
2018-08-13T19:05:25.209Z,24.80
2018-08-13T19:07:53.558Z,24.80
2018-08-13T19:10:22.318Z,24.80
2018-08-13T19:12:50.920Z,24.80
2018-08-13T19:15:21.787Z,24.80
2018-08-13T19:17:50.527Z,24.80
2018-08-13T19:20:18.894Z,24.80
2018-08-13T19:22:48.706Z,24.80
2018-08-13T19:25:21.292Z,24.70
2018-08-13T19:27:50.299Z,24.70
2018-08-13T19:30:19.478Z,24.70
2018-08-13T19:32:48.595Z,24.70
2018-08-13T19:35:17.353Z,24.70
2018-08-13T19:37:46.142Z,24.70
2018-08-13T19:40:17.323Z,24.70
2018-08-13T19:42:46.633Z,24.70
2018-08-13T19:45:16.338Z,24.70
2018-08-13T19:47:44.928Z,24.70
2018-08-13T19:50:13.934Z,24.60
2018-08-13T19:52:43.819Z,24.60
2018-08-13T19:55:12.801Z,24.60
2018-08-13T19:57:41.440Z,24.60
2018-08-13T20:00:27.843Z,24.60
2018-08-13T20:02:56.483Z,24.50
2018-08-13T20:05:26.235Z,24.50
2018-08-13T20:07:55.407Z,24.60
2018-08-13T20:10:23.854Z,24.50
2018-08-13T20:12:54.462Z,24.50
2018-08-13T20:15:23.026Z,24.60
2018-08-13T20:17:51.327Z,24.50
2018-08-13T20:20:20.575Z,24.50
2018-08-13T20:22:49.441Z,24.50
2018-08-13T20:25:18.647Z,24.50
2018-08-13T20:27:47.545Z,24.50
2018-08-13T20:30:17.866Z,24.50
2018-08-13T20:32:47.490Z,24.50
2018-08-13T20:35:16.328Z,24.50
2018-08-13T20:37:44.727Z,24.50
2018-08-13T20:40:15.150Z,24.50
2018-08-13T20:42:44.860Z,24.50
2018-08-13T20:45:15.307Z,24.50
2018-08-13T20:47:44.299Z,24.40
2018-08-13T20:50:14.627Z,24.50
2018-08-13T20:52:44.222Z,24.40
2018-08-13T20:55:15.386Z,24.40
2018-08-13T20:57:44.500Z,24.40
2018-08-13T21:00:14.608Z,24.40
2018-08-13T21:02:44.280Z,24.40
2018-08-13T21:05:12.671Z,24.40
2018-08-13T21:07:41.008Z,24.40
2018-08-13T21:10:13.540Z,24.40
2018-08-13T21:12:41.893Z,24.40
2018-08-13T21:15:12.342Z,24.40
2018-08-13T21:17:40.913Z,24.40
2018-08-13T21:20:10.318Z,24.40
2018-08-13T21:22:38.714Z,24.30
2018-08-13T21:25:09.639Z,24.40
2018-08-13T21:27:37.938Z,24.30
2018-08-13T21:30:06.594Z,24.30
2018-08-13T21:32:34.883Z,24.30
2018-08-13T21:35:03.209Z,24.30
2018-08-13T21:37:31.643Z,24.30
2018-08-13T21:42:28.505Z,24.30
2018-08-13T21:44:56.806Z,24.30
2018-08-13T21:47:25.139Z,24.30
2018-08-13T21:49:53.553Z,24.30
2018-08-13T21:52:22.002Z,24.20
2018-08-13T21:54:50.326Z,24.20
2018-08-13T21:57:21.482Z,24.30
2018-08-13T21:59:49.814Z,24.20
2018-08-13T22:02:18.118Z,24.20
2018-08-13T22:04:46.406Z,24.20
2018-08-13T22:07:14.703Z,24.20
2018-08-13T22:09:43.035Z,24.20
2018-08-13T22:12:17.537Z,24.20
2018-08-13T22:14:45.922Z,24.20
2018-08-13T22:17:14.360Z,24.20
2018-08-13T22:19:42.823Z,24.20
2018-08-13T22:22:11.301Z,24.20
2018-08-13T22:24:51.117Z,24.20
2018-08-13T22:27:19.522Z,24.20
2018-08-13T22:29:47.966Z,24.20
2018-08-13T22:32:16.291Z,24.20
2018-08-13T22:34:44.617Z,24.20
2018-08-13T22:37:13.017Z,24.20
2018-08-13T22:39:41.385Z,24.10
2018-08-13T22:42:09.770Z,24.10
2018-08-13T22:44:38.094Z,24.20
2018-08-13T22:47:06.453Z,24.10
2018-08-13T22:49:34.801Z,24.20
2018-08-13T22:52:03.233Z,24.10
2018-08-13T22:54:31.503Z,24.10
2018-08-13T22:56:59.789Z,24.10
2018-08-13T22:59:28.067Z,24.10
2018-08-13T23:01:56.633Z,24.10
2018-08-13T23:04:24.936Z,24.10
2018-08-13T23:06:53.272Z,24.10
2018-08-13T23:09:21.580Z,24.10
2018-08-13T23:11:49.894Z,24.10
2018-08-13T23:14:18.239Z,24.10
2018-08-13T23:16:46.552Z,24.00
2018-08-13T23:19:14.854Z,24.00
2018-08-13T23:21:43.158Z,24.00
2018-08-13T23:24:11.506Z,24.00
2018-08-13T23:26:39.864Z,24.00
2018-08-13T23:29:08.239Z,24.00
2018-08-13T23:31:36.607Z,24.00
2018-08-13T23:34:05.027Z,24.00
2018-08-13T23:36:33.346Z,24.00
2018-08-13T23:39:01.728Z,24.00
2018-08-13T23:41:30.191Z,24.00
2018-08-13T23:43:58.473Z,24.00
2018-08-13T23:46:26.828Z,24.00
2018-08-13T23:48:55.131Z,24.00
2018-08-13T23:51:23.502Z,24.00
2018-08-13T23:53:51.774Z,24.00
2018-08-13T23:56:21.056Z,24.00
2018-08-13T23:58:49.382Z,23.90
